createdAt,value
2023-08-07T00:04:42.375Z,4.2
2023-08-07T00:14:42.348Z,3.7
2023-08-07T00:24:42.331Z,3.9
2023-08-07T00:34:42.293Z,4
2023-08-07T00:44:42.271Z,4.3
2023-08-07T00:54:42.229Z,4.5
2023-08-07T01:04:42.198Z,3.4
2023-08-07T01:14:42.159Z,3.7
2023-08-07T01:24:42.125Z,3.6
2023-08-07T01:34:42.095Z,3.5
2023-08-07T01:44:42.061Z,3.4
2023-08-07T01:54:42.032Z,3.7
2023-08-07T02:04:41.994Z,4.1
2023-08-07T02:14:41.960Z,3.3
2023-08-07T02:24:41.923Z,3.8
2023-08-07T02:34:41.889Z,3.9
2023-08-07T02:44:41.886Z,3.3
2023-08-07T02:54:41.827Z,3.4
2023-08-07T03:04:41.785Z,3.8
2023-08-07T03:14:41.753Z,3.4
2023-08-07T03:24:41.752Z,3.4
2023-08-07T03:34:41.707Z,2.9
2023-08-07T03:44:41.697Z,3.4
2023-08-07T03:54:41.609Z,2.5
2023-08-07T04:04:41.585Z,2.9
2023-08-07T04:14:41.541Z,3.2
2023-08-07T04:24:41.511Z,3.9
2023-08-07T04:34:41.469Z,3.3
2023-08-07T04:44:41.434Z,3.2
2023-08-07T04:54:41.404Z,2.9
2023-08-07T05:04:41.373Z,2.9
2023-08-07T05:14:41.359Z,3.4
2023-08-07T05:24:41.296Z,3.3
2023-08-07T05:34:41.268Z,3
2023-08-07T05:44:41.245Z,2.5
2023-08-07T05:54:41.210Z,2.9
2023-08-07T06:04:41.191Z,3.1
2023-08-07T06:14:41.132Z,3.4
2023-08-07T06:24:41.094Z,3.7
2023-08-07T06:34:41.055Z,3.2
2023-08-07T06:44:41.029Z,3.3
2023-08-07T06:54:41.025Z,3.3
2023-08-07T07:04:40.946Z,3.5
2023-08-07T07:14:40.914Z,3.5
2023-08-07T07:24:40.906Z,3.2
2023-08-07T07:34:40.839Z,2.9
2023-08-07T07:44:40.833Z,3.7
2023-08-07T07:55:05.139Z,2.9
2023-08-07T08:05:05.441Z,2.6
2023-08-07T08:15:05.253Z,2.5
2023-08-07T08:25:04.997Z,2.7
2023-08-07T08:35:04.980Z,4.3
2023-08-07T08:45:04.939Z,2.3
2023-08-07T08:55:04.997Z,4.2
2023-08-07T09:05:04.853Z,1.6
2023-08-07T09:15:04.827Z,0.8
2023-08-07T09:25:04.780Z,0.8
2023-08-07T09:35:04.828Z,0.9
2023-08-07T09:45:04.745Z,2.9
2023-08-07T09:55:04.700Z,3.6
2023-08-07T10:05:04.689Z,4.4
2023-08-07T10:15:04.650Z,5.7
2023-08-07T10:25:04.613Z,4.3
2023-08-07T10:35:04.622Z,3.3
2023-08-07T10:45:04.718Z,1.6
2023-08-07T10:55:04.575Z,4.3
2023-08-07T11:05:04.547Z,3.7
2023-08-07T11:15:04.594Z,2.3
2023-08-07T11:25:04.590Z,3.7
2023-08-07T11:35:04.483Z,6.9
2023-08-07T11:45:04.477Z,1.5
2023-08-07T11:55:04.457Z,5
2023-08-07T12:05:04.533Z,3.7
2023-08-07T12:15:04.404Z,4.3
2023-08-07T12:25:04.371Z,6.6
2023-08-07T12:35:04.358Z,3.6
2023-08-07T12:45:04.344Z,2.1
2023-08-07T12:55:04.321Z,4.9
2023-08-07T13:05:04.309Z,4.8
2023-08-07T13:15:04.478Z,3.8
2023-08-07T13:25:04.280Z,1.5
2023-08-07T13:35:04.265Z,4.3
2023-08-07T13:45:04.254Z,2.5
2023-08-07T13:55:04.293Z,6.8
2023-08-07T14:05:04.591Z,3.6
2023-08-07T14:15:04.571Z,5.4
2023-08-07T14:25:04.574Z,4
2023-08-07T14:35:04.572Z,3
2023-08-07T14:45:04.195Z,4
2023-08-07T14:55:04.474Z,5.5
2023-08-07T15:05:04.128Z,3.9
2023-08-07T15:15:04.465Z,2.5
2023-08-07T15:25:04.073Z,3.8
2023-08-07T15:35:04.261Z,2
2023-08-07T15:45:04.313Z,3
2023-08-07T15:55:04.329Z,1.8
2023-08-07T16:05:04.225Z,1.5
2023-08-07T16:15:04.023Z,3.8
2023-08-07T16:25:04.146Z,1
2023-08-07T16:35:04.087Z,2.9
2023-08-07T16:45:04.093Z,2.9
2023-08-07T16:55:04.043Z,1.7
2023-08-07T17:05:03.911Z,1.8
2023-08-07T17:15:03.963Z,0.8
2023-08-07T17:25:03.886Z,0.8
2023-08-07T17:34:39.674Z,0.9
2023-08-07T17:45:03.880Z,1.5
2023-08-07T17:55:03.522Z,1
2023-08-07T18:05:03.811Z,2.7
2023-08-07T18:15:03.766Z,1.5
2023-08-07T18:25:03.759Z,2.8
2023-08-07T18:35:03.677Z,2.2
2023-08-07T18:45:03.696Z,1.4
2023-08-07T18:54:58.610Z,2.7
2023-08-07T19:05:03.595Z,2.2
2023-08-07T19:15:03.680Z,2.3
2023-08-07T19:25:03.538Z,2.1
2023-08-07T19:35:03.158Z,1.2
2023-08-07T19:45:03.124Z,2.1
2023-08-07T19:55:03.086Z,1.6
2023-08-07T20:05:03.065Z,1.7
2023-08-07T20:15:03.037Z,0
2023-08-07T20:25:02.992Z,1.7
2023-08-07T20:35:03.369Z,0
2023-08-07T20:45:03.109Z,0
2023-08-07T20:55:03.188Z,0
2023-08-07T21:05:02.909Z,0
2023-08-07T21:15:02.944Z,0.4
2023-08-07T21:25:03.091Z,0
2023-08-07T21:34:38.516Z,0.3
2023-08-07T21:44:38.405Z,0.3
2023-08-07T21:54:38.381Z,0.4
2023-08-07T22:04:38.658Z,0.3
2023-08-07T22:14:38.391Z,0
2023-08-07T22:24:38.259Z,0
2023-08-07T22:34:38.439Z,0.3
2023-08-07T22:44:38.568Z,0
2023-08-07T22:54:38.318Z,0
2023-08-07T23:04:38.498Z,0.4
2023-08-07T23:14:38.317Z,0.3
2023-08-07T23:24:37.956Z,0.3
2023-08-07T23:34:38.237Z,0.5
2023-08-07T23:44:38.421Z,0.4
2023-08-07T23:54:37.963Z,0.4
